sensor_id;sensor_type;location;lat;lon;timestamp;temperature;humidity
56374;DHT22;58212;47.034;7.376;2023-05-07T00:00:05;15.50;99.90
56374;DHT22;58212;47.034;7.376;2023-05-07T00:02:34;15.50;99.90
56374;DHT22;58212;47.034;7.376;2023-05-07T00:05:01;15.50;99.90
56374;DHT22;58212;47.034;7.376;2023-05-07T00:07:30;15.50;99.90
56374;DHT22;58212;47.034;7.376;2023-05-07T00:09:57;15.50;99.90
56374;DHT22;58212;47.034;7.376;2023-05-07T00:12:26;15.40;99.90
56374;DHT22;58212;47.034;7.376;2023-05-07T00:15:18;15.40;99.90
56374;DHT22;58212;47.034;7.376;2023-05-07T00:17:46;15.40;99.90
56374;DHT22;58212;47.034;7.376;2023-05-07T00:20:13;15.20;99.90
56374;DHT22;58212;47.034;7.376;2023-05-07T00:22:40;15.20;99.90
56374;DHT22;58212;47.034;7.376;2023-05-07T00:25:08;15.20;99.90
56374;DHT22;58212;47.034;7.376;2023-05-07T00:27:37;15.20;99.90
56374;DHT22;58212;47.034;7.376;2023-05-07T00:30:06;15.20;99.90
56374;DHT22;58212;47.034;7.376;2023-05-07T00:32:34;15.20;99.90
56374;DHT22;58212;47.034;7.376;2023-05-07T00:35:02;15.20;99.90
56374;DHT22;58212;47.034;7.376;2023-05-07T00:37:29;15.10;99.90
56374;DHT22;58212;47.034;7.376;2023-05-07T00:39:56;15.00;99.90
56374;DHT22;58212;47.034;7.376;2023-05-07T00:42:24;15.00;99.90
56374;DHT22;58212;47.034;7.376;2023-05-07T00:45:17;14.90;99.90
56374;DHT22;58212;47.034;7.376;2023-05-07T00:47:45;14.90;99.90
56374;DHT22;58212;47.034;7.376;2023-05-07T00:50:12;15.00;99.90
56374;DHT22;58212;47.034;7.376;2023-05-07T00:52:40;15.00;99.90
56374;DHT22;58212;47.034;7.376;2023-05-07T00:55:07;15.00;99.90
56374;DHT22;58212;47.034;7.376;2023-05-07T00:57:36;15.00;99.90
56374;DHT22;58212;47.034;7.376;2023-05-07T01:00:06;15.00;99.90
56374;DHT22;58212;47.034;7.376;2023-05-07T01:02:35;15.00;99.90
56374;DHT22;58212;47.034;7.376;2023-05-07T01:05:05;15.00;99.90
56374;DHT22;58212;47.034;7.376;2023-05-07T01:07:32;15.10;99.90
56374;DHT22;58212;47.034;7.376;2023-05-07T01:10:00;15.10;99.90
56374;DHT22;58212;47.034;7.376;2023-05-07T01:12:28;15.10;99.90
56374;DHT22;58212;47.034;7.376;2023-05-07T01:14:58;15.10;99.90
56374;DHT22;58212;47.034;7.376;2023-05-07T01:17:26;15.00;99.90
56374;DHT22;58212;47.034;7.376;2023-05-07T01:19:55;15.00;99.90
56374;DHT22;58212;47.034;7.376;2023-05-07T01:22:29;15.00;99.90
56374;DHT22;58212;47.034;7.376;2023-05-07T01:25:00;15.00;99.90
56374;DHT22;58212;47.034;7.376;2023-05-07T01:27:29;15.00;99.90
56374;DHT22;58212;47.034;7.376;2023-05-07T01:29:57;15.00;99.90
56374;DHT22;58212;47.034;7.376;2023-05-07T01:32:43;15.00;99.90
56374;DHT22;58212;47.034;7.376;2023-05-07T01:35:15;14.90;99.90
56374;DHT22;58212;47.034;7.376;2023-05-07T01:37:46;14.80;99.90
56374;DHT22;58212;47.034;7.376;2023-05-07T01:40:14;14.90;99.90
56374;DHT22;58212;47.034;7.376;2023-05-07T01:42:43;14.90;99.90
56374;DHT22;58212;47.034;7.376;2023-05-07T01:45:10;14.80;99.90
56374;DHT22;58212;47.034;7.376;2023-05-07T01:47:40;14.80;99.90
56374;DHT22;58212;47.034;7.376;2023-05-07T01:50:08;14.80;99.90
56374;DHT22;58212;47.034;7.376;2023-05-07T01:52:37;14.80;99.90
56374;DHT22;58212;47.034;7.376;2023-05-07T01:55:29;14.80;99.90
56374;DHT22;58212;47.034;7.376;2023-05-07T01:58:00;14.70;99.90
56374;DHT22;58212;47.034;7.376;2023-05-07T02:00:27;14.70;99.90
56374;DHT22;58212;47.034;7.376;2023-05-07T02:02:54;14.70;99.90
56374;DHT22;58212;47.034;7.376;2023-05-07T02:05:41;14.60;99.90
56374;DHT22;58212;47.034;7.376;2023-05-07T02:08:16;14.60;99.90
56374;DHT22;58212;47.034;7.376;2023-05-07T02:10:47;14.40;99.90
56374;DHT22;58212;47.034;7.376;2023-05-07T02:13:15;14.30;99.90
56374;DHT22;58212;47.034;7.376;2023-05-07T02:15:42;14.30;99.90
56374;DHT22;58212;47.034;7.376;2023-05-07T02:18:12;14.30;99.90
56374;DHT22;58212;47.034;7.376;2023-05-07T02:20:39;14.20;99.90
56374;DHT22;58212;47.034;7.376;2023-05-07T02:23:08;14.30;99.90
56374;DHT22;58212;47.034;7.376;2023-05-07T02:25:36;14.20;99.90
56374;DHT22;58212;47.034;7.376;2023-05-07T02:28:04;13.90;99.90
56374;DHT22;58212;47.034;7.376;2023-05-07T02:30:52;13.90;99.90
56374;DHT22;58212;47.034;7.376;2023-05-07T02:33:20;13.80;99.90
56374;DHT22;58212;47.034;7.376;2023-05-07T02:35:48;14.00;99.90
56374;DHT22;58212;47.034;7.376;2023-05-07T02:38:17;14.10;99.90
56374;DHT22;58212;47.034;7.376;2023-05-07T02:40:44;14.20;99.90
56374;DHT22;58212;47.034;7.376;2023-05-07T02:43:12;14.20;99.90
56374;DHT22;58212;47.034;7.376;2023-05-07T02:45:43;14.10;99.90
56374;DHT22;58212;47.034;7.376;2023-05-07T02:48:13;14.20;99.90
56374;DHT22;58212;47.034;7.376;2023-05-07T02:50:40;14.20;99.90
56374;DHT22;58212;47.034;7.376;2023-05-07T02:53:07;14.20;99.90
56374;DHT22;58212;47.034;7.376;2023-05-07T02:55:35;14.20;99.90
56374;DHT22;58212;47.034;7.376;2023-05-07T02:58:02;14.20;99.90
56374;DHT22;58212;47.034;7.376;2023-05-07T03:00:34;14.20;99.90
56374;DHT22;58212;47.034;7.376;2023-05-07T03:03:28;14.20;99.90
56374;DHT22;58212;47.034;7.376;2023-05-07T03:05:55;14.20;99.90
56374;DHT22;58212;47.034;7.376;2023-05-07T03:08:22;14.20;99.90
56374;DHT22;58212;47.034;7.376;2023-05-07T03:10:49;14.20;99.90
56374;DHT22;58212;47.034;7.376;2023-05-07T03:13:17;14.10;99.90
56374;DHT22;58212;47.034;7.376;2023-05-07T03:15:45;14.10;99.90
56374;DHT22;58212;47.034;7.376;2023-05-07T03:18:12;14.10;99.90
56374;DHT22;58212;47.034;7.376;2023-05-07T03:20:39;14.00;99.90
56374;DHT22;58212;47.034;7.376;2023-05-07T03:23:06;14.00;99.90
56374;DHT22;58212;47.034;7.376;2023-05-07T03:25:34;14.00;99.90
56374;DHT22;58212;47.034;7.376;2023-05-07T03:28:01;14.00;99.90
56374;DHT22;58212;47.034;7.376;2023-05-07T03:30:37;13.90;99.90
56374;DHT22;58212;47.034;7.376;2023-05-07T03:33:06;13.90;99.90
56374;DHT22;58212;47.034;7.376;2023-05-07T03:35:35;13.80;99.90
56374;DHT22;58212;47.034;7.376;2023-05-07T03:38:04;13.70;99.90
56374;DHT22;58212;47.034;7.376;2023-05-07T03:40:34;13.80;99.90
56374;DHT22;58212;47.034;7.376;2023-05-07T03:43:03;13.80;99.90
56374;DHT22;58212;47.034;7.376;2023-05-07T03:45:33;13.80;99.90
56374;DHT22;58212;47.034;7.376;2023-05-07T03:48:10;13.80;99.90
56374;DHT22;58212;47.034;7.376;2023-05-07T03:50:38;13.70;99.90
56374;DHT22;58212;47.034;7.376;2023-05-07T03:53:06;13.80;99.90
56374;DHT22;58212;47.034;7.376;2023-05-07T03:55:37;13.80;99.90
56374;DHT22;58212;47.034;7.376;2023-05-07T03:58:04;13.90;99.90
56374;DHT22;58212;47.034;7.376;2023-05-07T04:00:31;13.90;99.90
56374;DHT22;58212;47.034;7.376;2023-05-07T04:03:06;13.80;99.90
56374;DHT22;58212;47.034;7.376;2023-05-07T04:05:34;13.80;99.90
56374;DHT22;58212;47.034;7.376;2023-05-07T04:08:03;13.70;99.90
56374;DHT22;58212;47.034;7.376;2023-05-07T04:10:38;13.70;99.90
56374;DHT22;58212;47.034;7.376;2023-05-07T04:13:09;13.60;99.90
56374;DHT22;58212;47.034;7.376;2023-05-07T04:15:37;13.70;99.90
56374;DHT22;58212;47.034;7.376;2023-05-07T04:18:07;13.80;99.90
56374;DHT22;58212;47.034;7.376;2023-05-07T04:20:37;13.80;99.90
56374;DHT22;58212;47.034;7.376;2023-05-07T04:23:08;13.80;99.90
56374;DHT22;58212;47.034;7.376;2023-05-07T04:25:35;13.90;99.90
56374;DHT22;58212;47.034;7.376;2023-05-07T04:28:09;13.90;99.90
56374;DHT22;58212;47.034;7.376;2023-05-07T04:30:37;14.00;99.90
56374;DHT22;58212;47.034;7.376;2023-05-07T04:33:07;14.00;99.90
56374;DHT22;58212;47.034;7.376;2023-05-07T04:35:39;14.00;99.90
56374;DHT22;58212;47.034;7.376;2023-05-07T04:38:06;14.00;99.90
56374;DHT22;58212;47.034;7.376;2023-05-07T04:40:34;14.00;99.90
56374;DHT22;58212;47.034;7.376;2023-05-07T04:43:02;13.90;99.90
56374;DHT22;58212;47.034;7.376;2023-05-07T04:45:35;13.90;99.90
56374;DHT22;58212;47.034;7.376;2023-05-07T04:48:03;14.00;99.90
56374;DHT22;58212;47.034;7.376;2023-05-07T04:50:31;14.00;99.90
56374;DHT22;58212;47.034;7.376;2023-05-07T04:53:02;14.00;99.90
56374;DHT22;58212;47.034;7.376;2023-05-07T04:55:30;14.00;99.90
56374;DHT22;58212;47.034;7.376;2023-05-07T04:57:57;14.00;99.90
56374;DHT22;58212;47.034;7.376;2023-05-07T05:00:28;14.00;99.90
56374;DHT22;58212;47.034;7.376;2023-05-07T05:02:57;14.10;99.90
56374;DHT22;58212;47.034;7.376;2023-05-07T05:05:24;14.20;99.90
56374;DHT22;58212;47.034;7.376;2023-05-07T05:07:53;14.30;99.90
56374;DHT22;58212;47.034;7.376;2023-05-07T05:10:22;14.40;99.90
56374;DHT22;58212;47.034;7.376;2023-05-07T05:12:49;14.40;99.90
56374;DHT22;58212;47.034;7.376;2023-05-07T05:15:19;14.40;99.90
56374;DHT22;58212;47.034;7.376;2023-05-07T05:18:01;14.40;99.90
56374;DHT22;58212;47.034;7.376;2023-05-07T05:20:29;14.40;99.90
56374;DHT22;58212;47.034;7.376;2023-05-07T05:22:56;14.60;99.90
56374;DHT22;58212;47.034;7.376;2023-05-07T05:25:25;14.90;99.90
56374;DHT22;58212;47.034;7.376;2023-05-07T05:27:53;17.50;99.90
56374;DHT22;58212;47.034;7.376;2023-05-07T05:30:21;19.90;99.90
56374;DHT22;58212;47.034;7.376;2023-05-07T05:32:48;21.20;99.90
56374;DHT22;58212;47.034;7.376;2023-05-07T05:35:15;21.20;99.90
56374;DHT22;58212;47.034;7.376;2023-05-07T05:37:44;21.70;99.90
56374;DHT22;58212;47.034;7.376;2023-05-07T05:40:12;21.00;99.90
56374;DHT22;58212;47.034;7.376;2023-05-07T05:42:40;21.30;99.90
56374;DHT22;58212;47.034;7.376;2023-05-07T05:45:09;22.00;99.90
56374;DHT22;58212;47.034;7.376;2023-05-07T05:47:38;19.30;99.90
56374;DHT22;58212;47.034;7.376;2023-05-07T05:50:07;16.70;99.90
56374;DHT22;58212;47.034;7.376;2023-05-07T05:52:39;15.70;99.90
56374;DHT22;58212;47.034;7.376;2023-05-07T05:55:07;15.20;99.90
56374;DHT22;58212;47.034;7.376;2023-05-07T05:57:36;15.20;99.90
56374;DHT22;58212;47.034;7.376;2023-05-07T06:00:06;15.10;99.90
56374;DHT22;58212;47.034;7.376;2023-05-07T06:02:46;15.50;99.90
56374;DHT22;58212;47.034;7.376;2023-05-07T06:05:20;15.80;99.90
56374;DHT22;58212;47.034;7.376;2023-05-07T06:07:51;15.60;99.90
56374;DHT22;58212;47.034;7.376;2023-05-07T06:10:18;15.20;99.90
56374;DHT22;58212;47.034;7.376;2023-05-07T06:12:49;15.30;99.90
56374;DHT22;58212;47.034;7.376;2023-05-07T06:15:18;15.40;99.90
56374;DHT22;58212;47.034;7.376;2023-05-07T06:17:45;15.40;99.90
56374;DHT22;58212;47.034;7.376;2023-05-07T06:20:12;15.40;99.90
56374;DHT22;58212;47.034;7.376;2023-05-07T06:22:40;15.10;99.90
56374;DHT22;58212;47.034;7.376;2023-05-07T06:25:09;15.00;99.90
56374;DHT22;58212;47.034;7.376;2023-05-07T06:27:38;14.80;99.90
56374;DHT22;58212;47.034;7.376;2023-05-07T06:30:07;14.90;99.90
56374;DHT22;58212;47.034;7.376;2023-05-07T06:32:36;15.00;99.90
56374;DHT22;58212;47.034;7.376;2023-05-07T06:35:06;15.20;99.90
56374;DHT22;58212;47.034;7.376;2023-05-07T06:37:41;15.80;99.90
56374;DHT22;58212;47.034;7.376;2023-05-07T06:40:12;16.30;99.90
56374;DHT22;58212;47.034;7.376;2023-05-07T06:43:05;17.00;99.90
56374;DHT22;58212;47.034;7.376;2023-05-07T06:45:42;16.90;99.90
56374;DHT22;58212;47.034;7.376;2023-05-07T06:48:12;16.80;99.90
56374;DHT22;58212;47.034;7.376;2023-05-07T06:50:53;16.80;99.90
56374;DHT22;58212;47.034;7.376;2023-05-07T06:53:22;16.80;99.90
56374;DHT22;58212;47.034;7.376;2023-05-07T06:55:54;17.20;99.90
56374;DHT22;58212;47.034;7.376;2023-05-07T06:58:21;17.10;99.90
56374;DHT22;58212;47.034;7.376;2023-05-07T07:00:49;17.30;99.90
56374;DHT22;58212;47.034;7.376;2023-05-07T07:03:18;17.70;99.90
56374;DHT22;58212;47.034;7.376;2023-05-07T07:05:47;17.80;99.90
56374;DHT22;58212;47.034;7.376;2023-05-07T07:08:15;18.20;99.90
56374;DHT22;58212;47.034;7.376;2023-05-07T07:10:44;18.00;99.90
56374;DHT22;58212;47.034;7.376;2023-05-07T07:13:11;17.20;99.90
56374;DHT22;58212;47.034;7.376;2023-05-07T07:15:39;16.90;99.90
56374;DHT22;58212;47.034;7.376;2023-05-07T07:18:06;17.50;99.90
56374;DHT22;58212;47.034;7.376;2023-05-07T07:20:35;17.90;99.90
56374;DHT22;58212;47.034;7.376;2023-05-07T07:23:03;17.80;99.90
56374;DHT22;58212;47.034;7.376;2023-05-07T07:25:30;17.60;99.90
56374;DHT22;58212;47.034;7.376;2023-05-07T07:27:57;17.60;99.90
56374;DHT22;58212;47.034;7.376;2023-05-07T07:30:25;17.50;99.90
56374;DHT22;58212;47.034;7.376;2023-05-07T07:32:53;17.70;99.90
56374;DHT22;58212;47.034;7.376;2023-05-07T07:35:20;17.80;99.90
56374;DHT22;58212;47.034;7.376;2023-05-07T07:37:50;17.70;99.90
56374;DHT22;58212;47.034;7.376;2023-05-07T07:40:19;17.80;99.90
56374;DHT22;58212;47.034;7.376;2023-05-07T07:43:12;18.00;99.90
56374;DHT22;58212;47.034;7.376;2023-05-07T07:45:40;17.70;99.90
56374;DHT22;58212;47.034;7.376;2023-05-07T07:48:08;17.70;99.90
56374;DHT22;58212;47.034;7.376;2023-05-07T07:50:37;17.90;99.90
56374;DHT22;58212;47.034;7.376;2023-05-07T07:53:07;17.80;99.90
56374;DHT22;58212;47.034;7.376;2023-05-07T07:55:38;17.80;99.90
56374;DHT22;58212;47.034;7.376;2023-05-07T07:58:05;18.00;99.90
56374;DHT22;58212;47.034;7.376;2023-05-07T08:00:33;17.70;99.90
56374;DHT22;58212;47.034;7.376;2023-05-07T08:03:01;17.80;99.90
56374;DHT22;58212;47.034;7.376;2023-05-07T08:05:35;17.60;99.90
56374;DHT22;58212;47.034;7.376;2023-05-07T08:08:05;17.90;99.90
56374;DHT22;58212;47.034;7.376;2023-05-07T08:10:35;18.00;99.90
56374;DHT22;58212;47.034;7.376;2023-05-07T08:13:12;18.00;99.90
56374;DHT22;58212;47.034;7.376;2023-05-07T08:15:41;17.90;99.90
56374;DHT22;58212;47.034;7.376;2023-05-07T08:18:10;18.20;99.90
56374;DHT22;58212;47.034;7.376;2023-05-07T08:20:37;18.40;99.90
56374;DHT22;58212;47.034;7.376;2023-05-07T08:23:07;18.90;99.90
56374;DHT22;58212;47.034;7.376;2023-05-07T08:25:35;19.30;99.90
56374;DHT22;58212;47.034;7.376;2023-05-07T08:28:03;19.30;99.90
56374;DHT22;58212;47.034;7.376;2023-05-07T08:30:31;19.40;99.90
56374;DHT22;58212;47.034;7.376;2023-05-07T08:33:00;19.20;99.90
56374;DHT22;58212;47.034;7.376;2023-05-07T08:35:27;19.40;99.90
56374;DHT22;58212;47.034;7.376;2023-05-07T08:37:54;19.40;99.90
56374;DHT22;58212;47.034;7.376;2023-05-07T08:40:25;19.70;99.90
56374;DHT22;58212;47.034;7.376;2023-05-07T08:42:57;19.90;99.90
56374;DHT22;58212;47.034;7.376;2023-05-07T08:45:30;19.90;99.90
56374;DHT22;58212;47.034;7.376;2023-05-07T08:54:39;19.90;99.90
56374;DHT22;58212;47.034;7.376;2023-05-07T08:57:09;19.80;99.90
56374;DHT22;58212;47.034;7.376;2023-05-07T08:59:38;19.90;99.90
56374;DHT22;58212;47.034;7.376;2023-05-07T09:02:10;19.90;99.90
56374;DHT22;58212;47.034;7.376;2023-05-07T09:04:39;20.00;99.90
56374;DHT22;58212;47.034;7.376;2023-05-07T09:07:07;19.60;99.90
56374;DHT22;58212;47.034;7.376;2023-05-07T09:09:39;19.60;99.90
56374;DHT22;58212;47.034;7.376;2023-05-07T09:12:07;19.80;99.90
56374;DHT22;58212;47.034;7.376;2023-05-07T09:14:37;19.90;99.90
56374;DHT22;58212;47.034;7.376;2023-05-07T09:17:04;19.70;99.90
56374;DHT22;58212;47.034;7.376;2023-05-07T09:19:32;19.80;99.90
56374;DHT22;58212;47.034;7.376;2023-05-07T09:22:04;19.70;99.90
56374;DHT22;58212;47.034;7.376;2023-05-07T09:24:47;19.70;99.90
56374;DHT22;58212;47.034;7.376;2023-05-07T09:27:15;19.50;99.90
56374;DHT22;58212;47.034;7.376;2023-05-07T09:29:46;19.40;99.90
56374;DHT22;58212;47.034;7.376;2023-05-07T09:32:15;19.20;99.90
56374;DHT22;58212;47.034;7.376;2023-05-07T09:34:44;19.20;99.90
56374;DHT22;58212;47.034;7.376;2023-05-07T09:37:14;19.40;99.90
56374;DHT22;58212;47.034;7.376;2023-05-07T09:39:43;19.40;99.90
56374;DHT22;58212;47.034;7.376;2023-05-07T09:42:13;19.40;99.90
56374;DHT22;58212;47.034;7.376;2023-05-07T09:44:42;19.30;99.90
56374;DHT22;58212;47.034;7.376;2023-05-07T09:47:19;19.40;99.90
56374;DHT22;58212;47.034;7.376;2023-05-07T09:49:54;19.70;99.90
56374;DHT22;58212;47.034;7.376;2023-05-07T09:52:24;19.60;99.90
56374;DHT22;58212;47.034;7.376;2023-05-07T09:54:57;19.60;99.90
56374;DHT22;58212;47.034;7.376;2023-05-07T09:57:27;19.70;99.90
56374;DHT22;58212;47.034;7.376;2023-05-07T10:00:02;19.70;99.90
56374;DHT22;58212;47.034;7.376;2023-05-07T10:02:57;19.60;99.90
56374;DHT22;58212;47.034;7.376;2023-05-07T10:05:36;19.60;99.90
56374;DHT22;58212;47.034;7.376;2023-05-07T10:08:05;19.80;99.90
56374;DHT22;58212;47.034;7.376;2023-05-07T10:10:36;19.70;99.90
56374;DHT22;58212;47.034;7.376;2023-05-07T10:13:07;19.50;99.90
56374;DHT22;58212;47.034;7.376;2023-05-07T10:15:38;19.50;99.90
56374;DHT22;58212;47.034;7.376;2023-05-07T10:18:09;19.60;99.90
56374;DHT22;58212;47.034;7.376;2023-05-07T10:20:37;19.80;99.90
56374;DHT22;58212;47.034;7.376;2023-05-07T10:23:13;20.10;99.90
56374;DHT22;58212;47.034;7.376;2023-05-07T10:25:45;20.10;99.90
56374;DHT22;58212;47.034;7.376;2023-05-07T10:28:21;20.20;99.90
56374;DHT22;58212;47.034;7.376;2023-05-07T10:30:58;20.10;99.90
56374;DHT22;58212;47.034;7.376;2023-05-07T10:33:36;20.30;99.90
56374;DHT22;58212;47.034;7.376;2023-05-07T10:36:05;20.30;99.90
56374;DHT22;58212;47.034;7.376;2023-05-07T10:38:33;20.20;99.90
56374;DHT22;58212;47.034;7.376;2023-05-07T10:41:01;20.30;99.90
56374;DHT22;58212;47.034;7.376;2023-05-07T10:43:40;20.40;99.90
56374;DHT22;58212;47.034;7.376;2023-05-07T10:46:10;20.40;99.90
56374;DHT22;58212;47.034;7.376;2023-05-07T10:49:12;20.70;99.90
56374;DHT22;58212;47.034;7.376;2023-05-07T10:52:13;20.90;99.90
56374;DHT22;58212;47.034;7.376;2023-05-07T10:55:18;21.50;99.90
56374;DHT22;58212;47.034;7.376;2023-05-07T10:58:27;21.80;99.90
56374;DHT22;58212;47.034;7.376;2023-05-07T11:01:25;21.60;99.90
56374;DHT22;58212;47.034;7.376;2023-05-07T11:04:15;21.30;99.90
56374;DHT22;58212;47.034;7.376;2023-05-07T11:10:04;21.40;99.90
56374;DHT22;58212;47.034;7.376;2023-05-07T11:12:58;21.60;99.90
56374;DHT22;58212;47.034;7.376;2023-05-07T11:15:43;22.40;99.90
56374;DHT22;58212;47.034;7.376;2023-05-07T11:18:21;22.70;99.90
56374;DHT22;58212;47.034;7.376;2023-05-07T11:20:54;22.20;99.90
56374;DHT22;58212;47.034;7.376;2023-05-07T11:23:58;21.90;99.90
56374;DHT22;58212;47.034;7.376;2023-05-07T11:26:47;21.70;99.90
56374;DHT22;58212;47.034;7.376;2023-05-07T11:29:16;22.10;99.90
56374;DHT22;58212;47.034;7.376;2023-05-07T11:31:44;21.90;99.90
56374;DHT22;58212;47.034;7.376;2023-05-07T11:34:21;21.90;99.90
56374;DHT22;58212;47.034;7.376;2023-05-07T11:36:52;21.80;99.90
56374;DHT22;58212;47.034;7.376;2023-05-07T11:39:26;21.60;99.90
56374;DHT22;58212;47.034;7.376;2023-05-07T11:41:53;21.50;99.90
56374;DHT22;58212;47.034;7.376;2023-05-07T11:44:20;21.50;99.90
56374;DHT22;58212;47.034;7.376;2023-05-07T11:46:48;21.30;99.90
56374;DHT22;58212;47.034;7.376;2023-05-07T11:49:16;21.70;99.90
56374;DHT22;58212;47.034;7.376;2023-05-07T11:51:43;21.60;99.90
56374;DHT22;58212;47.034;7.376;2023-05-07T11:54:18;21.40;99.90
56374;DHT22;58212;47.034;7.376;2023-05-07T11:56:47;21.20;99.90
56374;DHT22;58212;47.034;7.376;2023-05-07T11:59:17;21.10;99.90
56374;DHT22;58212;47.034;7.376;2023-05-07T12:01:48;21.50;99.90
56374;DHT22;58212;47.034;7.376;2023-05-07T12:04:19;21.70;99.90
56374;DHT22;58212;47.034;7.376;2023-05-07T12:06:47;21.90;99.90
56374;DHT22;58212;47.034;7.376;2023-05-07T12:09:21;21.70;99.90
56374;DHT22;58212;47.034;7.376;2023-05-07T12:11:48;21.30;99.90
56374;DHT22;58212;47.034;7.376;2023-05-07T12:14:15;21.30;99.90
56374;DHT22;58212;47.034;7.376;2023-05-07T12:16:42;21.40;99.90
56374;DHT22;58212;47.034;7.376;2023-05-07T12:19:11;21.40;99.90
56374;DHT22;58212;47.034;7.376;2023-05-07T12:21:40;21.50;99.90
56374;DHT22;58212;47.034;7.376;2023-05-07T12:24:10;21.60;99.90
56374;DHT22;58212;47.034;7.376;2023-05-07T12:26:40;21.50;99.90
56374;DHT22;58212;47.034;7.376;2023-05-07T12:29:09;21.60;99.90
56374;DHT22;58212;47.034;7.376;2023-05-07T12:31:40;21.10;99.90
56374;DHT22;58212;47.034;7.376;2023-05-07T12:34:10;21.40;99.90
56374;DHT22;58212;47.034;7.376;2023-05-07T12:36:38;21.60;99.90
56374;DHT22;58212;47.034;7.376;2023-05-07T12:39:06;21.90;99.90
56374;DHT22;58212;47.034;7.376;2023-05-07T12:41:36;22.10;99.90
56374;DHT22;58212;47.034;7.376;2023-05-07T12:44:22;22.40;99.90
56374;DHT22;58212;47.034;7.376;2023-05-07T12:46:49;22.60;99.90
56374;DHT22;58212;47.034;7.376;2023-05-07T12:49:17;22.30;99.90
56374;DHT22;58212;47.034;7.376;2023-05-07T12:51:47;22.10;99.90
56374;DHT22;58212;47.034;7.376;2023-05-07T12:54:17;22.60;99.90
56374;DHT22;58212;47.034;7.376;2023-05-07T12:57:00;22.30;99.90
56374;DHT22;58212;47.034;7.376;2023-05-07T12:59:36;22.00;99.90
56374;DHT22;58212;47.034;7.376;2023-05-07T13:02:04;22.10;99.90
56374;DHT22;58212;47.034;7.376;2023-05-07T13:04:31;22.00;99.90
56374;DHT22;58212;47.034;7.376;2023-05-07T13:06:59;22.00;99.90
56374;DHT22;58212;47.034;7.376;2023-05-07T13:09:26;21.90;99.90
56374;DHT22;58212;47.034;7.376;2023-05-07T13:11:55;21.80;99.90
56374;DHT22;58212;47.034;7.376;2023-05-07T13:14:25;21.50;99.90
56374;DHT22;58212;47.034;7.376;2023-05-07T13:16:53;21.40;99.90
56374;DHT22;58212;47.034;7.376;2023-05-07T13:19:20;21.50;99.90
56374;DHT22;58212;47.034;7.376;2023-05-07T13:21:48;21.50;99.90
56374;DHT22;58212;47.034;7.376;2023-05-07T13:24:16;21.30;99.90
56374;DHT22;58212;47.034;7.376;2023-05-07T13:26:43;21.20;99.90
56374;DHT22;58212;47.034;7.376;2023-05-07T13:29:10;21.20;99.90
56374;DHT22;58212;47.034;7.376;2023-05-07T13:31:38;20.90;99.90
56374;DHT22;58212;47.034;7.376;2023-05-07T13:34:10;20.80;99.90
56374;DHT22;58212;47.034;7.376;2023-05-07T13:36:37;20.80;99.90
56374;DHT22;58212;47.034;7.376;2023-05-07T13:39:30;20.80;99.90
56374;DHT22;58212;47.034;7.376;2023-05-07T13:41:57;20.90;99.90
56374;DHT22;58212;47.034;7.376;2023-05-07T13:44:26;20.90;99.90
56374;DHT22;58212;47.034;7.376;2023-05-07T13:46:54;21.00;99.90
56374;DHT22;58212;47.034;7.376;2023-05-07T13:49:22;21.10;99.90
56374;DHT22;58212;47.034;7.376;2023-05-07T13:51:50;20.90;99.90
56374;DHT22;58212;47.034;7.376;2023-05-07T13:54:17;20.90;99.90
56374;DHT22;58212;47.034;7.376;2023-05-07T13:56:44;20.70;99.90
56374;DHT22;58212;47.034;7.376;2023-05-07T13:59:11;20.60;99.90
56374;DHT22;58212;47.034;7.376;2023-05-07T14:01:40;20.50;99.90
56374;DHT22;58212;47.034;7.376;2023-05-07T14:04:08;20.50;99.90
56374;DHT22;58212;47.034;7.376;2023-05-07T14:06:36;20.60;99.90
56374;DHT22;58212;47.034;7.376;2023-05-07T14:09:05;20.50;99.90
56374;DHT22;58212;47.034;7.376;2023-05-07T14:12:03;20.50;99.90
56374;DHT22;58212;47.034;7.376;2023-05-07T14:14:32;20.40;99.90
56374;DHT22;58212;47.034;7.376;2023-05-07T14:16:59;20.20;99.90
56374;DHT22;58212;47.034;7.376;2023-05-07T14:19:26;20.00;99.90
56374;DHT22;58212;47.034;7.376;2023-05-07T14:21:57;19.70;99.90
56374;DHT22;58212;47.034;7.376;2023-05-07T14:24:26;19.60;99.90
56374;DHT22;58212;47.034;7.376;2023-05-07T14:26:53;19.50;99.90
56374;DHT22;58212;47.034;7.376;2023-05-07T14:29:21;19.30;99.90
56374;DHT22;58212;47.034;7.376;2023-05-07T14:31:48;19.00;99.90
56374;DHT22;58212;47.034;7.376;2023-05-07T14:34:15;18.90;99.90
56374;DHT22;58212;47.034;7.376;2023-05-07T14:36:42;18.60;99.90
56374;DHT22;58212;47.034;7.376;2023-05-07T14:39:11;18.50;99.90
56374;DHT22;58212;47.034;7.376;2023-05-07T14:41:39;18.40;99.90
56374;DHT22;58212;47.034;7.376;2023-05-07T14:44:06;18.00;99.90
56374;DHT22;58212;47.034;7.376;2023-05-07T14:46:34;18.10;99.90
56374;DHT22;58212;47.034;7.376;2023-05-07T14:49:02;18.20;99.90
56374;DHT22;58212;47.034;7.376;2023-05-07T14:51:30;18.00;99.90
56374;DHT22;58212;47.034;7.376;2023-05-07T14:53:58;17.40;99.90
56374;DHT22;58212;47.034;7.376;2023-05-07T14:56:28;17.40;99.90
56374;DHT22;58212;47.034;7.376;2023-05-07T14:58:55;17.60;99.90
56374;DHT22;58212;47.034;7.376;2023-05-07T15:01:22;17.80;99.90
56374;DHT22;58212;47.034;7.376;2023-05-07T15:03:49;17.90;99.90
56374;DHT22;58212;47.034;7.376;2023-05-07T15:06:17;17.80;99.90
56374;DHT22;58212;47.034;7.376;2023-05-07T15:08:45;17.80;99.90
56374;DHT22;58212;47.034;7.376;2023-05-07T15:11:12;17.70;99.90
56374;DHT22;58212;47.034;7.376;2023-05-07T15:13:41;17.60;99.90
56374;DHT22;58212;47.034;7.376;2023-05-07T15:16:09;17.60;99.90
56374;DHT22;58212;47.034;7.376;2023-05-07T15:18:38;17.50;99.90
56374;DHT22;58212;47.034;7.376;2023-05-07T15:21:05;17.40;99.90
56374;DHT22;58212;47.034;7.376;2023-05-07T15:23:33;17.40;99.90
56374;DHT22;58212;47.034;7.376;2023-05-07T15:26:01;17.40;99.90
56374;DHT22;58212;47.034;7.376;2023-05-07T15:28:30;17.50;99.90
56374;DHT22;58212;47.034;7.376;2023-05-07T15:31:00;17.60;99.90
56374;DHT22;58212;47.034;7.376;2023-05-07T15:33:27;17.70;99.90
56374;DHT22;58212;47.034;7.376;2023-05-07T15:35:54;17.50;99.90
56374;DHT22;58212;47.034;7.376;2023-05-07T15:38:24;17.60;99.90
56374;DHT22;58212;47.034;7.376;2023-05-07T15:40:51;17.70;99.90
56374;DHT22;58212;47.034;7.376;2023-05-07T15:43:20;17.60;99.90
56374;DHT22;58212;47.034;7.376;2023-05-07T15:45:47;17.60;99.90
56374;DHT22;58212;47.034;7.376;2023-05-07T15:48:16;17.60;99.90
56374;DHT22;58212;47.034;7.376;2023-05-07T15:50:45;17.60;99.90
56374;DHT22;58212;47.034;7.376;2023-05-07T15:53:13;17.60;99.90
56374;DHT22;58212;47.034;7.376;2023-05-07T15:55:41;17.50;99.90
56374;DHT22;58212;47.034;7.376;2023-05-07T15:58:08;17.50;99.90
56374;DHT22;58212;47.034;7.376;2023-05-07T16:00:37;17.50;99.90